Time;durP1;ratioP1;P1;durP2;ratioP2;P2;SDS_P1;SDS_P2;PMS_P1;PMS_P2;Temp;Humidity;BMP_temperature;BMP_pressure;BME280_temperature;BME280_humidity;BME280_pressure;Samples;Min_cycle;Max_cycle;Signal;HPM_P1;HPM_P2
2021/12/17 07:17:32;;;;;;;;;;;7.20;99.90;;;;;;6055355;23;19951;-57
2021/12/17 07:22:43;;;;;;;;;;;7.10;99.90;;;;;;4944010;29;19925;-57
2021/12/17 07:33:35;;;;;;;;;;;7.20;99.90;;;;;;4865461;29;19915;-57
2021/12/17 07:36:09;;;;;;;;;;;7.20;99.90;;;;;;4932360;28;20016;-56
2021/12/17 07:41:01;;;;;;;;;;;7.20;99.90;;;;;;4945238;29;19910;-53
2021/12/17 07:43:38;;;;;;;;;;;7.20;99.90;;;;;;4927937;29;19917;-58
2021/12/17 07:46:09;;;;;;;;;;;7.20;99.90;;;;;;4926091;29;20002;-56
2021/12/17 07:48:35;;;;;;;;;;;7.20;99.90;;;;;;4925492;29;19942;-58
2021/12/17 07:51:02;;;;;;;;;;;7.20;99.90;;;;;;4926908;29;19914;-56
2021/12/17 07:53:29;;;;;;;;;;;7.20;99.90;;;;;;4941555;29;19911;-59
2021/12/17 07:55:55;;;;;;;;;;;7.20;99.90;;;;;;4924663;29;20038;-56
2021/12/17 07:58:20;;;;;;;;;;;7.20;99.90;;;;;;4924024;29;19997;-59
2021/12/17 08:00:46;;;;;;;;;;;7.20;99.90;;;;;;4924981;29;19934;-59
2021/12/17 08:03:14;;;;;;;;;;;7.10;99.90;;;;;;4926248;29;19915;-59
2021/12/17 08:05:42;;;;;;;;;;;7.10;99.90;;;;;;4944683;29;19923;-57
2021/12/17 08:08:07;;;;;;;;;;;7.10;99.90;;;;;;4945458;29;20037;-58
2021/12/17 08:10:33;;;;;;;;;;;7.10;99.90;;;;;;4930060;29;20001;-59
2021/12/17 08:12:59;;;;;;;;;;;7.10;99.90;;;;;;4949411;29;20260;-59
2021/12/17 08:15:32;;;;;;;;;;;7.10;99.90;;;;;;4933084;29;20131;-58
2021/12/17 08:28:28;;;;;;;;;;;7.30;99.90;;;;;;4947911;29;19914;-58
2021/12/17 08:30:53;;;;;;;;;;;7.20;99.90;;;;;;4929659;29;20190;-56
2021/12/17 08:33:21;;;;;;;;;;;7.20;99.90;;;;;;4928569;29;20380;-56
2021/12/17 08:35:47;;;;;;;;;;;7.30;99.90;;;;;;4944946;29;20250;-58
2021/12/17 08:38:12;;;;;;;;;;;7.20;99.90;;;;;;4929683;29;20283;-58
2021/12/17 08:40:38;;;;;;;;;;;7.20;99.90;;;;;;4928430;29;20275;-54
2021/12/17 08:43:04;;;;;;;;;;;7.20;99.90;;;;;;4945123;29;19910;-59
2021/12/17 08:45:30;;;;;;;;;;;7.20;99.90;;;;;;4927538;29;20175;-58
2021/12/17 08:47:55;;;;;;;;;;;7.20;99.90;;;;;;4945717;29;20025;-59
2021/12/17 08:50:21;;;;;;;;;;;7.10;99.90;;;;;;4929872;29;20236;-59
2021/12/17 08:52:47;;;;;;;;;;;7.20;99.90;;;;;;4931312;29;19919;-58
2021/12/17 08:55:13;;;;;;;;;;;7.20;99.90;;;;;;4929672;29;20191;-59
2021/12/17 08:57:39;;;;;;;;;;;7.20;99.90;;;;;;4930779;29;19911;-59
2021/12/17 09:00:08;;;;;;;;;;;7.20;99.90;;;;;;4929331;29;20014;-59
2021/12/17 09:02:35;;;;;;;;;;;7.20;99.90;;;;;;4927993;29;20275;-57
2021/12/17 09:05:01;;;;;;;;;;;7.20;99.90;;;;;;4928468;29;19911;-57
2021/12/17 09:07:26;;;;;;;;;;;7.10;99.90;;;;;;4927585;29;20482;-57
2021/12/17 09:09:52;;;;;;;;;;;7.10;99.90;;;;;;4943826;29;20330;-59
2021/12/17 09:12:17;;;;;;;;;;;7.20;99.90;;;;;;4926155;29;19911;-59
2021/12/17 09:14:43;;;;;;;;;;;7.20;99.90;;;;;;4942845;29;19929;-59
2021/12/17 09:17:08;;;;;;;;;;;7.20;99.90;;;;;;4937127;29;19925;-60
2021/12/17 09:19:35;;;;;;;;;;;7.20;99.90;;;;;;4953648;29;19914;-59
2021/12/17 09:22:01;;;;;;;;;;;7.20;99.90;;;;;;4934523;29;20187;-59
2021/12/17 09:24:26;;;;;;;;;;;7.20;99.90;;;;;;4947505;29;19965;-56
2021/12/17 09:26:52;;;;;;;;;;;7.20;99.90;;;;;;4914118;29;19910;-58
2021/12/17 09:29:18;;;;;;;;;;;7.20;99.90;;;;;;4947119;29;19915;-58
2021/12/17 09:31:43;;;;;;;;;;;7.20;99.90;;;;;;4926769;29;19999;-59
2021/12/17 09:34:09;;;;;;;;;;;7.20;99.90;;;;;;4927393;29;19915;-58
2021/12/17 09:36:35;;;;;;;;;;;7.10;99.90;;;;;;4927112;29;20190;-57
2021/12/17 09:39:01;;;;;;;;;;;7.10;99.90;;;;;;4944231;29;19921;-58
2021/12/17 09:41:26;;;;;;;;;;;7.00;99.90;;;;;;4930578;29;19910;-58
2021/12/17 09:43:52;;;;;;;;;;;7.00;99.90;;;;;;4934651;29;20111;-59
2021/12/17 09:46:18;;;;;;;;;;;7.00;99.90;;;;;;4953072;29;20192;-56
2021/12/17 09:48:46;;;;;;;;;;;7.00;99.90;;;;;;4937571;29;20330;-58
2021/12/17 09:51:12;;;;;;;;;;;7.00;99.90;;;;;;4935155;29;19911;-56
2021/12/17 09:53:38;;;;;;;;;;;7.00;99.90;;;;;;4934536;29;20211;-58
2021/12/17 09:56:04;;;;;;;;;;;7.00;99.90;;;;;;4937253;29;19914;-55
2021/12/17 09:58:29;;;;;;;;;;;7.00;99.90;;;;;;4938000;28;20310;-58
2021/12/17 10:00:55;;;;;;;;;;;7.00;99.90;;;;;;4940540;29;19914;-54
2021/12/17 10:03:20;;;;;;;;;;;7.00;99.90;;;;;;4941430;29;19919;-61
2021/12/17 10:05:46;;;;;;;;;;;7.10;99.90;;;;;;4940675;29;19911;-61
2021/12/17 10:08:13;;;;;;;;;;;7.00;99.90;;;;;;4940120;29;19922;-55
2021/12/17 10:10:44;;;;;;;;;;;7.20;99.90;;;;;;4954693;29;19911;-54
2021/12/17 10:13:11;;;;;;;;;;;7.20;99.90;;;;;;4938504;29;19910;-57
2021/12/17 10:15:38;;;;;;;;;;;7.10;99.90;;;;;;4937333;29;20291;-56
2021/12/17 10:18:04;;;;;;;;;;;7.10;99.90;;;;;;4931632;29;20074;-57
2021/12/17 10:20:34;;;;;;;;;;;7.10;99.90;;;;;;4932970;29;20005;-54
2021/12/17 10:23:01;;;;;;;;;;;7.00;99.90;;;;;;4933374;29;19911;-55
2021/12/17 10:25:28;;;;;;;;;;;7.00;99.90;;;;;;4933836;29;19911;-58
2021/12/17 10:27:59;;;;;;;;;;;7.00;99.90;;;;;;4933335;29;19922;-57
2021/12/17 10:30:25;;;;;;;;;;;7.00;99.90;;;;;;4934156;29;19919;-54
2021/12/17 10:32:51;;;;;;;;;;;7.10;99.90;;;;;;4935629;29;19981;-58
2021/12/17 10:35:21;;;;;;;;;;;7.00;99.90;;;;;;4935218;29;19922;-58
2021/12/17 10:37:51;;;;;;;;;;;7.10;99.90;;;;;;4924408;29;19939;-56
2021/12/17 10:40:22;;;;;;;;;;;7.10;99.90;;;;;;4923339;29;19914;-55
2021/12/17 10:45:30;;;;;;;11.17;8.10;;;7.10;99.90;;;;;;5098178;27;20410;-57
2021/12/17 10:48:26;;;;;;;12.23;9.45;;;7.20;99.90;;;;;;5097769;28;20381;-58
2021/12/17 10:51:02;;;;;;;20.65;10.48;;;7.20;99.90;;;;;;5099512;28;20381;-57
2021/12/17 10:53:28;;;;;;;30.75;12.23;;;7.20;99.90;;;;;;5097694;28;20718;-57
2021/12/17 10:55:55;;;;;;;17.50;10.73;;;7.30;99.90;;;;;;5098544;28;20389;-56
2021/12/17 10:58:21;;;;;;;21.27;11.52;;;7.30;99.90;;;;;;5098448;28;20393;-58
2021/12/17 11:00:50;;;;;;;14.55;10.07;;;7.30;99.90;;;;;;5098232;28;20388;-53
2021/12/17 11:03:16;;;;;;;12.70;10.43;;;7.40;99.90;;;;;;5098389;28;20445;-58
2021/12/17 11:05:42;;;;;;;11.73;10.52;;;7.30;99.90;;;;;;5095785;28;20596;-58
2021/12/17 11:08:28;;;;;;;13.82;11.40;;;7.30;99.90;;;;;;5097311;28;20377;-57
2021/12/17 11:11:06;;;;;;;11.95;10.65;;;7.30;99.90;;;;;;5096759;28;20381;-56
2021/12/17 11:13:32;;;;;;;11.30;10.10;;;7.30;99.90;;;;;;5097292;28;20576;-53
2021/12/17 11:15:59;;;;;;;10.63;9.52;;;7.30;99.90;;;;;;5097830;28;20602;-58
2021/12/17 11:18:26;;;;;;;10.17;9.10;;;7.20;99.90;;;;;;5096922;28;20760;-54
2021/12/17 11:20:54;;;;;;;9.60;8.60;;;7.20;99.90;;;;;;5096223;28;20373;-57
2021/12/17 11:23:22;;;;;;;10.00;9.00;;;7.20;99.90;;;;;;5101449;28;20506;-54
2021/12/17 11:25:50;;;;;;;10.65;9.55;;;7.20;99.90;;;;;;5116877;27;20387;-55
2021/12/17 11:28:16;;;;;;;11.20;9.88;;;7.20;99.90;;;;;;5117998;27;20466;-57
2021/12/17 11:30:45;;;;;;;11.60;9.77;;;7.30;99.90;;;;;;5118959;27;20386;-55
2021/12/17 11:33:11;;;;;;;10.43;9.30;;;7.20;99.90;;;;;;5120507;27;20446;-57
2021/12/17 11:35:42;;;;;;;9.95;8.32;;;7.20;99.90;;;;;;5117446;27;20453;-57
2021/12/17 11:38:31;;;;;;;9.55;8.55;;;7.20;99.90;;;;;;5119803;27;21013;-58
2021/12/17 11:41:15;;;;;;;12.20;9.18;;;7.20;99.90;;;;;;5118964;27;20380;-57
2021/12/17 11:43:52;;;;;;;11.25;9.88;;;7.30;99.90;;;;;;5118165;27;20460;-58
2021/12/17 11:46:29;;;;;;;9.55;8.50;;;7.30;99.90;;;;;;5074499;28;21060;-56
2021/12/17 11:48:56;;;;;;;9.98;8.57;;;7.40;99.90;;;;;;5076050;28;20953;-55
2021/12/17 11:51:29;;;;;;;8.53;7.63;;;7.30;99.90;;;;;;5074353;28;20386;-57
2021/12/17 11:53:59;;;;;;;10.88;7.82;;;7.40;99.90;;;;;;5091242;28;20571;-57
2021/12/17 11:56:47;;;;;;;9.48;7.82;;;7.40;99.90;;;;;;5084742;28;20436;-56
2021/12/17 11:59:25;;;;;;;9.13;6.67;;;7.40;99.90;;;;;;5084681;28;20385;-57
2021/12/17 12:02:03;;;;;;;8.52;6.75;;;7.40;99.90;;;;;;5084377;28;20691;-54
2021/12/17 12:04:34;;;;;;;6.82;5.30;;;7.40;99.90;;;;;;5064402;28;20399;-55
2021/12/17 12:07:04;;;;;;;6.95;5.50;;;7.40;99.90;;;;;;5061546;28;20388;-53
2021/12/17 12:09:55;;;;;;;7.07;5.77;;;7.40;99.90;;;;;;5060542;28;20380;-57
2021/12/17 12:12:21;;;;;;;8.73;5.97;;;7.40;99.90;;;;;;5074536;28;20378;-56
2021/12/17 12:14:46;;;;;;;7.17;5.63;;;7.40;99.90;;;;;;5058480;28;20388;-53
2021/12/17 12:17:12;;;;;;;6.97;5.53;;;7.40;99.90;;;;;;5055464;28;20383;-55
2021/12/17 12:19:48;;;;;;;6.72;4.97;;;7.50;99.90;;;;;;5058194;28;20380;-57
2021/12/17 12:22:14;;;;;;;6.82;5.10;;;7.50;99.90;;;;;;5055286;28;20384;-56
2021/12/17 12:24:40;;;;;;;6.50;5.00;;;7.50;99.90;;;;;;5055555;28;20414;-57
2021/12/17 12:27:05;;;;;;;5.55;4.53;;;7.50;99.90;;;;;;5055735;28;20415;-57
2021/12/17 12:29:31;;;;;;;6.30;4.80;;;7.60;99.90;;;;;;5056481;28;20660;-55
2021/12/17 12:31:58;;;;;;;7.30;4.70;;;7.60;99.90;;;;;;5057459;28;20388;-57
2021/12/17 12:34:31;;;;;;;7.00;4.07;;;7.60;99.90;;;;;;5058425;28;20436;-56
2021/12/17 12:37:18;;;;;;;6.45;4.35;;;7.60;99.90;;;;;;5058792;28;20453;-57
2021/12/17 12:39:49;;;;;;;4.45;3.80;;;7.60;99.90;;;;;;5060193;28;20701;-55
2021/12/17 12:42:35;;;;;;;5.72;4.47;;;7.70;99.90;;;;;;5065975;28;20371;-57
2021/12/17 12:45:03;;;;;;;5.80;4.05;;;7.70;99.90;;;;;;5067628;28;20416;-54
2021/12/17 12:47:35;;;;;;;5.95;4.30;;;7.80;99.90;;;;;;5066004;28;20388;-52
2021/12/17 12:50:04;;;;;;;5.68;4.07;;;7.90;99.90;;;;;;5070045;28;20663;-56
2021/12/17 12:52:44;;;;;;;4.13;3.50;;;8.00;99.90;;;;;;5069803;28;20425;-57
2021/12/17 12:55:26;;;;;;;4.45;4.05;;;8.00;99.90;;;;;;5069583;28;20384;-57
2021/12/17 12:57:58;;;;;;;5.78;4.13;;;8.00;99.90;;;;;;5068490;28;20479;-58
2021/12/17 13:00:54;;;;;;;5.10;4.20;;;8.00;99.90;;;;;;5067414;28;20396;-58
2021/12/17 13:03:39;;;;;;;5.93;3.87;;;7.90;99.90;;;;;;5069759;28;20478;-58
2021/12/17 13:06:06;;;;;;;4.65;3.83;;;7.80;99.90;;;;;;5068303;28;20667;-58
2021/12/17 13:08:32;;;;;;;5.07;4.13;;;7.80;99.90;;;;;;5066669;28;20390;-57
2021/12/17 13:11:02;;;;;;;4.90;4.40;;;7.80;99.90;;;;;;5064773;28;20419;-57
2021/12/17 13:13:35;;;;;;;5.10;4.60;;;7.80;99.90;;;;;;5063547;28;20459;-58
2021/12/17 13:24:07;;;;;;;7.35;5.78;;;7.80;99.90;;;;;;5063572;28;20407;-56
2021/12/17 13:26:34;;;;;;;8.85;6.55;;;7.90;99.90;;;;;;5060738;28;20379;-57
2021/12/17 13:29:14;;;;;;;8.98;6.85;;;7.90;99.90;;;;;;5062456;28;20482;-59
2021/12/17 13:31:50;;;;;;;9.05;7.28;;;7.90;99.90;;;;;;5063379;28;20388;-59
2021/12/17 13:34:28;;;;;;;9.65;8.38;;;7.90;99.90;;;;;;5064441;28;20376;-59
2021/12/17 13:37:08;;;;;;;10.47;8.37;;;7.90;99.90;;;;;;5063444;28;20802;-59
2021/12/17 13:39:49;;;;;;;10.93;8.23;;;7.90;99.90;;;;;;5066005;28;20388;-59
2021/12/17 13:42:18;;;;;;;9.15;7.43;;;7.90;99.90;;;;;;5069788;28;20398;-59
2021/12/17 13:44:50;;;;;;;11.23;7.90;;;7.90;99.90;;;;;;5069296;28;20416;-59
2021/12/17 13:47:40;;;;;;;10.80;7.70;;;7.90;99.90;;;;;;5066779;28;20441;-59
2021/12/17 13:50:28;;;;;;;8.90;6.65;;;7.90;99.90;;;;;;5068373;28;20388;-59
2021/12/17 13:52:55;;;;;;;10.48;7.45;;;8.00;99.90;;;;;;5066265;28;20474;-59
2021/12/17 13:55:33;;;;;;;9.23;6.72;;;8.00;99.90;;;;;;5061315;28;20445;-58
2021/12/17 13:58:05;;;;;;;11.35;7.93;;;8.00;99.90;;;;;;5058305;28;20406;-58
2021/12/17 14:00:36;;;;;;;8.00;6.50;;;8.00;99.90;;;;;;5056227;28;20651;-58
2021/12/17 14:03:03;;;;;;;9.73;7.30;;;8.00;99.90;;;;;;5056049;28;20484;-58
2021/12/17 14:05:49;;;;;;;8.82;7.10;;;8.00;99.90;;;;;;5055879;28;20752;-58
2021/12/17 14:08:18;;;;;;;9.98;7.00;;;8.00;99.90;;;;;;5057970;28;20407;-58
2021/12/17 14:10:44;;;;;;;7.43;5.93;;;8.00;99.90;;;;;;5057519;28;20371;-59
2021/12/17 14:13:24;;;;;;;8.85;6.55;;;8.00;99.90;;;;;;5056948;28;20563;-58
2021/12/17 14:15:53;;;;;;;7.88;6.13;;;8.10;99.90;;;;;;5054597;28;20429;-59
2021/12/17 14:18:24;;;;;;;8.20;6.38;;;8.00;99.90;;;;;;5053054;28;20395;-57
2021/12/17 14:20:51;;;;;;;7.53;5.60;;;8.00;99.90;;;;;;5057049;28;20376;-58
2021/12/17 14:23:21;;;;;;;8.98;6.32;;;8.00;99.90;;;;;;5056619;28;20656;-59
2021/12/17 14:25:53;;;;;;;8.00;6.18;;;8.00;99.90;;;;;;5056231;28;20475;-59
2021/12/17 14:28:23;;;;;;;7.55;5.47;;;8.10;99.90;;;;;;5052484;28;20407;-59
2021/12/17 14:31:09;;;;;;;7.43;5.90;;;8.10;99.90;;;;;;5053145;28;20818;-59
2021/12/17 14:33:40;;;;;;;7.27;5.33;;;8.10;99.90;;;;;;5055606;28;20391;-59
2021/12/17 14:36:11;;;;;;;7.85;5.25;;;8.10;99.90;;;;;;5056776;28;20411;-59
2021/12/17 14:38:40;;;;;;;6.63;4.97;;;8.10;99.90;;;;;;5054999;28;20651;-59
2021/12/17 14:41:11;;;;;;;6.30;4.50;;;8.10;99.90;;;;;;5054766;28;20787;-59
2021/12/17 14:43:50;;;;;;;7.03;4.95;;;8.10;99.90;;;;;;5055801;28;20419;-57
2021/12/17 14:46:25;;;;;;;5.30;4.47;;;8.20;99.90;;;;;;5060302;28;20550;-57
2021/12/17 15:00:26;;;;;;;6.75;5.05;;;8.30;99.90;;;;;;5066707;28;21169;-58
2021/12/17 15:05:22;;;;;;;5.60;4.93;;;8.30;99.90;;;;;;5067529;28;20407;-60
2021/12/17 15:07:48;;;;;;;7.07;5.40;;;8.30;99.90;;;;;;5068664;28;20383;-59
2021/12/17 15:10:15;;;;;;;6.50;5.60;;;8.30;99.90;;;;;;5070131;28;20480;-57
2021/12/17 15:12:41;;;;;;;9.05;6.10;;;8.30;99.90;;;;;;5070614;28;20441;-59
2021/12/17 15:15:16;;;;;;;7.60;6.82;;;8.30;99.90;;;;;;5070778;28;20407;-57
2021/12/17 15:17:43;;;;;;;8.13;7.28;;;8.30;99.90;;;;;;5070224;28;20390;-58
2021/12/17 15:20:11;;;;;;;8.25;7.40;;;8.40;99.90;;;;;;5069536;28;20388;-58
2021/12/17 15:22:37;;;;;;;9.37;7.50;;;8.30;99.90;;;;;;5069310;28;20380;-58
2021/12/17 15:25:04;;;;;;;8.77;7.22;;;8.40;99.90;;;;;;5069501;28;20438;-58
2021/12/17 15:27:33;;;;;;;8.25;7.30;;;8.40;99.90;;;;;;5068288;28;20395;-57
2021/12/17 15:29:59;;;;;;;8.90;6.90;;;8.40;99.90;;;;;;5067876;28;20392;-58
2021/12/17 15:32:24;;;;;;;9.50;7.72;;;8.40;99.90;;;;;;5069818;28;20394;-59
2021/12/17 15:34:52;;;;;;;10.75;8.60;;;8.40;99.90;;;;;;5070849;28;20392;-56
2021/12/17 15:37:17;;;;;;;9.15;7.68;;;8.40;99.90;;;;;;5070807;28;20394;-58
2021/12/17 15:39:43;;;;;;;10.93;8.97;;;8.40;99.90;;;;;;5071716;28;20383;-59
2021/12/17 15:42:10;;;;;;;9.23;8.07;;;8.40;99.90;;;;;;5071496;28;20397;-58
2021/12/17 15:44:35;;;;;;;10.50;8.40;;;8.40;99.90;;;;;;5071393;28;20455;-58
2021/12/17 15:47:01;;;;;;;9.50;8.50;;;8.40;99.90;;;;;;5072468;28;20829;-58
2021/12/17 15:49:26;;;;;;;8.47;7.57;;;8.40;99.90;;;;;;5073373;28;20480;-59
2021/12/17 15:51:52;;;;;;;8.73;6.73;;;8.40;99.90;;;;;;5074344;28;20778;-60
2021/12/17 15:54:18;;;;;;;6.93;6.32;;;8.40;99.90;;;;;;5072927;28;20407;-57
2021/12/17 15:56:46;;;;;;;6.78;6.07;;;8.40;99.90;;;;;;5073746;28;20391;-58
2021/12/17 15:59:12;;;;;;;7.30;6.15;;;8.40;99.90;;;;;;5073731;28;20406;-57
2021/12/17 16:01:38;;;;;;;6.90;6.18;;;8.40;99.90;;;;;;5071862;28;20474;-58
2021/12/17 16:04:04;;;;;;;7.57;6.47;;;8.30;99.90;;;;;;5071565;28;20754;-58
2021/12/17 16:06:30;;;;;;;7.60;6.13;;;8.30;99.90;;;;;;5072440;28;20379;-58
2021/12/17 16:08:58;;;;;;;8.18;6.70;;;8.30;99.90;;;;;;5071377;28;20386;-57
2021/12/17 16:17:52;;;;;;;5.47;4.68;;;8.30;99.90;;;;;;5069689;28;20403;-57
2021/12/17 16:22:06;;;;;;;3.87;3.47;;;8.30;99.90;;;;;;5070901;28;20840;-59
2021/12/17 16:24:32;;;;;;;3.55;3.22;;;8.30;99.90;;;;;;5070121;28;20408;-58
2021/12/17 16:26:57;;;;;;;2.95;2.70;;;8.30;99.90;;;;;;5071756;28;20390;-59
2021/12/17 16:29:24;;;;;;;2.77;2.43;;;8.30;99.90;;;;;;5070114;28;20404;-60
2021/12/17 16:31:50;;;;;;;2.78;2.55;;;8.20;99.90;;;;;;5072182;28;20513;-59
2021/12/17 16:34:16;;;;;;;2.55;2.10;;;8.30;99.90;;;;;;5070715;28;21047;-58
2021/12/17 16:36:45;;;;;;;2.50;2.30;;;8.30;99.90;;;;;;5087860;28;20572;-58
2021/12/17 16:39:14;;;;;;;2.45;2.25;;;8.30;99.90;;;;;;5072553;28;20387;-58
2021/12/17 16:41:40;;;;;;;2.72;2.53;;;8.30;99.90;;;;;;5071680;28;20454;-58
2021/12/17 16:44:10;;;;;;;2.70;2.50;;;8.20;99.90;;;;;;5072522;28;20755;-60
2021/12/17 16:49:18;;;;;;;4.88;4.15;;;8.30;99.90;;;;;;5090831;28;20405;-61
2021/12/17 16:51:47;;;;;;;5.90;4.90;;;8.20;99.90;;;;;;5089690;28;20421;-61
2021/12/17 16:54:14;;;;;;;5.43;4.28;;;8.30;99.90;;;;;;5092428;28;20481;-61
2021/12/17 16:56:39;;;;;;;3.65;3.35;;;8.20;99.90;;;;;;5091600;28;20501;-58
2021/12/17 16:59:05;;;;;;;3.30;3.00;;;8.20;99.90;;;;;;5091454;28;20506;-58
2021/12/17 17:01:35;;;;;;;4.45;3.60;;;8.20;99.90;;;;;;5093817;28;20425;-57
2021/12/17 17:04:01;;;;;;;4.57;3.65;;;8.10;99.90;;;;;;5093233;28;20424;-58
2021/12/17 17:06:27;;;;;;;3.80;3.47;;;8.10;99.90;;;;;;5092131;28;20382;-56
2021/12/17 17:08:59;;;;;;;4.30;3.90;;;8.00;99.90;;;;;;5090508;28;20398;-58
2021/12/17 17:11:29;;;;;;;4.88;4.47;;;8.00;99.90;;;;;;5090111;28;20722;-58
2021/12/17 17:13:55;;;;;;;5.18;4.68;;;7.90;99.90;;;;;;5089454;28;20821;-59
2021/12/17 17:16:20;;;;;;;6.65;6.03;;;7.90;99.90;;;;;;5089393;28;20398;-58
2021/12/17 17:18:46;;;;;;;6.70;6.10;;;7.90;99.90;;;;;;5088564;28;20378;-56
2021/12/17 17:21:11;;;;;;;7.43;6.63;;;7.90;99.90;;;;;;5091104;28;20401;-59
2021/12/17 17:23:38;;;;;;;8.77;7.78;;;7.90;99.90;;;;;;5093152;28;20492;-59
2021/12/17 17:26:07;;;;;;;8.88;7.97;;;7.90;99.90;;;;;;5092121;28;20387;-57
2021/12/17 17:28:33;;;;;;;9.07;8.15;;;7.80;99.90;;;;;;5091900;28;20709;-58
2021/12/17 17:30:58;;;;;;;10.30;9.18;;;7.80;99.90;;;;;;5091523;28;20378;-58
2021/12/17 17:33:25;;;;;;;11.82;10.18;;;7.80;99.90;;;;;;5091141;28;20647;-56
2021/12/17 17:35:52;;;;;;;10.77;9.65;;;7.80;99.90;;;;;;5090828;28;20378;-57
2021/12/17 17:38:18;;;;;;;12.10;10.10;;;7.80;99.90;;;;;;5092091;28;20474;-59
2021/12/17 17:40:44;;;;;;;11.45;10.25;;;7.80;99.90;;;;;;5092396;28;20889;-59
2021/12/17 17:43:12;;;;;;;11.40;10.23;;;7.80;99.90;;;;;;5091207;28;20936;-59
2021/12/17 17:45:40;;;;;;;11.80;10.60;;;7.80;99.90;;;;;;5108595;28;20438;-59
2021/12/17 17:48:12;;;;;;;11.88;10.68;;;7.80;99.90;;;;;;5089115;28;20528;-59
2021/12/17 17:50:38;;;;;;;11.95;10.63;;;7.80;99.90;;;;;;5088768;28;20380;-58
2021/12/17 17:53:06;;;;;;;12.77;11.48;;;7.80;99.90;;;;;;5086041;28;20377;-59
2021/12/17 17:55:32;;;;;;;12.52;11.25;;;7.80;99.90;;;;;;5087225;28;20847;-54
2021/12/17 17:57:57;;;;;;;13.73;12.32;;;7.80;99.90;;;;;;5106579;28;20479;-54
2021/12/17 18:00:25;;;;;;;14.38;12.95;;;7.80;99.90;;;;;;5088772;28;20388;-58
2021/12/17 18:02:51;;;;;;;14.90;13.40;;;7.70;99.90;;;;;;5105684;28;20443;-58
2021/12/17 18:05:20;;;;;;;15.25;13.70;;;7.70;99.90;;;;;;5086328;28;20420;-58
2021/12/17 18:07:46;;;;;;;15.85;14.15;;;7.70;99.90;;;;;;5087332;28;20792;-58
2021/12/17 18:10:14;;;;;;;14.68;13.18;;;7.70;99.90;;;;;;5087583;28;20396;-54
2021/12/17 18:12:47;;;;;;;14.88;12.88;;;7.70;99.90;;;;;;5086426;28;20377;-57
2021/12/17 18:15:15;;;;;;;15.00;13.23;;;7.70;99.90;;;;;;5084500;28;20696;-56
2021/12/17 18:17:41;;;;;;;14.40;12.90;;;7.80;99.90;;;;;;5084930;28;20693;-58
2021/12/17 18:20:07;;;;;;;15.40;13.73;;;7.70;99.90;;;;;;5084632;28;20384;-55
2021/12/17 18:22:33;;;;;;;14.00;12.60;;;7.70;99.90;;;;;;5103067;28;20709;-58
2021/12/17 18:25:00;;;;;;;13.48;11.93;;;7.70;99.90;;;;;;5085299;28;20457;-58
2021/12/17 18:27:25;;;;;;;13.20;11.80;;;7.80;99.90;;;;;;5101429;28;20406;-58
2021/12/17 18:29:51;;;;;;;14.38;12.90;;;7.80;99.90;;;;;;5079084;28;20392;-57
2021/12/17 18:32:17;;;;;;;13.35;11.95;;;7.70;99.90;;;;;;5078887;28;20978;-57
2021/12/17 18:34:43;;;;;;;13.68;12.27;;;7.80;99.90;;;;;;5094686;28;20385;-58
2021/12/17 18:37:09;;;;;;;13.40;11.93;;;7.70;99.90;;;;;;5077518;28;20395;-58
2021/12/17 18:39:38;;;;;;;13.30;12.00;;;7.70;99.90;;;;;;5076869;28;20688;-55
2021/12/17 18:44:49;;;;;;;13.38;12.07;;;7.70;99.90;;;;;;5060454;28;20422;-56
2021/12/17 18:47:14;;;;;;;13.40;12.02;;;7.70;99.90;;;;;;5062062;28;20396;-56
2021/12/17 18:49:40;;;;;;;13.20;11.90;;;7.70;99.90;;;;;;5062977;28;20387;-55
2021/12/17 18:52:06;;;;;;;11.70;10.60;;;7.70;99.90;;;;;;5064864;28;20380;-57
2021/12/17 18:54:31;;;;;;;12.30;11.10;;;7.60;99.90;;;;;;5061577;28;20694;-57
2021/12/17 18:56:57;;;;;;;10.97;9.90;;;7.70;99.90;;;;;;5064087;28;20410;-57
2021/12/17 18:59:23;;;;;;;9.90;9.00;;;7.70;99.90;;;;;;5063282;28;20403;-57
2021/12/17 19:01:48;;;;;;;10.05;9.05;;;7.70;99.90;;;;;;5062432;28;20799;-55
2021/12/17 19:04:15;;;;;;;9.50;8.60;;;7.80;99.90;;;;;;5062813;28;20410;-55
2021/12/17 19:06:41;;;;;;;9.40;8.52;;;7.90;99.90;;;;;;5065641;28;20453;-58
2021/12/17 19:09:07;;;;;;;9.13;8.30;;;7.90;99.90;;;;;;5066790;28;20379;-60
2021/12/17 19:11:35;;;;;;;9.05;8.25;;;7.90;99.90;;;;;;5082662;28;20395;-57
2021/12/17 19:14:02;;;;;;;8.95;8.05;;;7.90;99.90;;;;;;5087690;28;20801;-58
2021/12/17 19:16:27;;;;;;;6.93;6.32;;;7.90;99.90;;;;;;5086246;28;20648;-58
2021/12/17 19:19:07;;;;;;;6.10;5.60;;;7.80;99.90;;;;;;5083500;28;20454;-58
2021/12/17 19:21:43;;;;;;;5.70;5.20;;;7.80;99.90;;;;;;5082437;28;21045;-57
2021/12/17 19:24:10;;;;;;;6.30;5.70;;;7.90;99.90;;;;;;5078484;28;20675;-58
2021/12/17 19:26:36;;;;;;;6.50;5.90;;;7.80;99.90;;;;;;5079809;28;20378;-59
2021/12/17 19:29:03;;;;;;;6.78;6.18;;;7.80;99.90;;;;;;5079639;28;20544;-58
2021/12/17 19:31:29;;;;;;;6.27;5.77;;;7.80;99.90;;;;;;5080326;28;20395;-58
2021/12/17 19:33:56;;;;;;;5.87;5.37;;;7.80;99.90;;;;;;5080861;28;20653;-54
2021/12/17 19:36:23;;;;;;;5.97;5.47;;;7.80;99.90;;;;;;5080053;28;20397;-58
2021/12/17 19:38:48;;;;;;;5.68;5.25;;;7.90;99.90;;;;;;5081998;28;20381;-59
2021/12/17 19:41:14;;;;;;;5.87;5.37;;;7.90;99.90;;;;;;5082257;28;20385;-56
2021/12/17 19:43:41;;;;;;;5.30;4.90;;;7.90;99.90;;;;;;5100410;28;20410;-59
2021/12/17 19:46:10;;;;;;;4.65;4.28;;;7.90;99.90;;;;;;5084453;28;20466;-59
2021/12/17 19:48:50;;;;;;;5.70;5.20;;;7.90;99.90;;;;;;5086154;28;20378;-59
2021/12/17 19:51:16;;;;;;;4.50;4.10;;;7.80;99.90;;;;;;5103657;28;20379;-58
2021/12/17 19:53:41;;;;;;;5.27;4.80;;;7.80;99.90;;;;;;5088380;28;20386;-59
2021/12/17 19:56:07;;;;;;;4.77;4.37;;;7.90;99.90;;;;;;5087273;28;20390;-56
2021/12/17 19:58:33;;;;;;;5.43;4.95;;;7.90;99.90;;;;;;5086076;28;20623;-59
2021/12/17 20:00:59;;;;;;;5.22;4.72;;;7.80;99.90;;;;;;5085483;28;20754;-59
2021/12/17 20:03:26;;;;;;;5.30;4.80;;;7.90;99.90;;;;;;5081903;28;20438;-57
2021/12/17 20:05:52;;;;;;;6.85;5.57;;;7.90;99.90;;;;;;5084797;28;20429;-59
2021/12/17 20:08:22;;;;;;;4.55;4.15;;;7.90;99.90;;;;;;5083538;28;20649;-59
2021/12/17 20:10:48;;;;;;;4.60;4.20;;;7.90;99.90;;;;;;5083649;28;20405;-57
2021/12/17 20:13:15;;;;;;;4.35;3.95;;;7.90;99.90;;;;;;5084538;28;20385;-58
2021/12/17 20:15:41;;;;;;;4.18;3.78;;;7.80;99.90;;;;;;5081275;28;20386;-58
2021/12/17 20:18:09;;;;;;;4.13;3.83;;;7.80;99.90;;;;;;5081614;28;20484;-56
2021/12/17 20:20:40;;;;;;;3.67;3.37;;;7.80;99.90;;;;;;5081737;28;20679;-57
2021/12/17 20:23:06;;;;;;;4.00;3.70;;;7.90;99.90;;;;;;5081696;28;20378;-59
2021/12/17 20:25:31;;;;;;;4.07;3.78;;;7.90;99.90;;;;;;5084591;28;20705;-59
2021/12/17 20:27:59;;;;;;;4.43;4.03;;;7.90;99.90;;;;;;5083479;28;20410;-58
2021/12/17 20:30:24;;;;;;;3.80;3.50;;;7.90;99.90;;;;;;5084479;28;20386;-56
2021/12/17 20:32:50;;;;;;;3.58;3.28;;;7.90;99.90;;;;;;5089690;28;20431;-58
2021/12/17 20:35:15;;;;;;;3.27;2.97;;;7.80;99.90;;;;;;5091074;28;20801;-58
2021/12/17 20:37:41;;;;;;;3.20;2.90;;;7.90;99.90;;;;;;5088191;28;20447;-58
2021/12/17 20:40:09;;;;;;;3.00;2.80;;;7.90;99.90;;;;;;5091947;28;20928;-58
2021/12/17 20:43:23;;;;;;;3.30;3.00;;;7.90;99.90;;;;;;5108266;28;20376;-58
2021/12/17 20:45:21;;;;;;;3.50;3.20;;;7.90;99.90;;;;;;5096937;28;20415;-58
2021/12/17 20:47:48;;;;;;;3.45;3.20;;;7.90;99.90;;;;;;5091797;28;20429;-57
2021/12/17 20:50:14;;;;;;;3.08;2.88;;;7.90;99.90;;;;;;5091960;28;20448;-55
2021/12/17 20:52:40;;;;;;;3.90;3.40;;;7.90;99.90;;;;;;5091328;28;20372;-58
2021/12/17 20:55:09;;;;;;;3.60;3.22;;;7.90;99.90;;;;;;5093099;28;20438;-58
2021/12/17 20:57:35;;;;;;;3.25;2.95;;;7.90;99.90;;;;;;5092552;28;20392;-59
2021/12/17 21:00:03;;;;;;;3.55;3.25;;;8.00;99.90;;;;;;5077123;28;20429;-56
2021/12/17 21:02:29;;;;;;;3.22;2.92;;;8.00;99.90;;;;;;5073697;28;20395;-58
2021/12/17 21:04:54;;;;;;;3.33;3.03;;;8.00;99.90;;;;;;5073155;28;20398;-57
2021/12/17 21:07:19;;;;;;;3.80;3.40;;;8.00;99.90;;;;;;5073291;28;20527;-58
2021/12/17 21:09:45;;;;;;;3.53;3.20;;;8.00;99.90;;;;;;5072257;28;20386;-57
2021/12/17 21:12:11;;;;;;;3.40;3.10;;;8.00;99.90;;;;;;5072695;28;20582;-57
2021/12/17 21:14:36;;;;;;;3.20;2.90;;;8.00;99.90;;;;;;5070118;28;20835;-58
2021/12/17 21:17:03;;;;;;;3.17;2.97;;;8.00;99.90;;;;;;5071812;28;20394;-59
2021/12/17 21:19:29;;;;;;;3.60;3.30;;;8.00;99.90;;;;;;5087163;28;20793;-59
2021/12/17 21:21:56;;;;;;;3.90;3.60;;;8.00;99.90;;;;;;5071793;28;20386;-58
2021/12/17 21:24:23;;;;;;;3.90;3.50;;;8.00;99.90;;;;;;5071902;28;20406;-59
2021/12/17 21:26:50;;;;;;;2.90;2.70;;;8.00;99.90;;;;;;5070788;28;20870;-58
2021/12/17 21:29:18;;;;;;;3.67;3.37;;;8.00;99.90;;;;;;5070928;28;20394;-59
2021/12/17 21:31:46;;;;;;;3.40;3.10;;;8.00;99.90;;;;;;5072020;28;20378;-57
2021/12/17 21:34:12;;;;;;;3.42;3.13;;;8.00;99.90;;;;;;5073049;28;20619;-59
2021/12/17 21:36:38;;;;;;;3.38;3.08;;;8.00;99.90;;;;;;5075715;28;20654;-58
2021/12/17 21:39:03;;;;;;;4.00;3.60;;;8.00;99.90;;;;;;5075860;28;20757;-59